GW2194 Weather Reports


Display with metric or nautical units.
time (UTC)temp
F
wind
direction
speed
MPH
gust
MPH
rain 1hr
in
rain 24hr
in
rain mn
in
humidity
%
barometer
mb
20240616161846 82 225 5.0 7.0 0.00 0.00 0.00 55 1021.3
20240616161345 82 219 3.0 5.0 0.00 0.00 0.00 55 1020.8
20240616160845 81 222 7.0 10.0 0.00 0.00 0.00 54 1021.1
20240616160344 81 187 4.0 11.0 0.00 0.00 0.00 53 1021.3
20240616155841 81 229 8.0 8.0 0.00 0.00 0.00 56 1021.1
20240616155339 82 195 4.0 11.0 0.00 0.00 0.00 52 1021.4
20240616154838 82 162 0.0 5.0 0.00 0.00 0.00 60 1021.3
20240616154337 81 39 2.0 4.0 0.00 0.00 0.00 57 1021.3
20240616153837 81 185 3.0 6.0 0.00 0.00 0.00 55 1021.3
20240616153336 80 167 1.0 7.0 0.00 0.00 0.00 58 1021.5
20240616152834 79 21 2.0 5.0 0.00 0.00 0.00 58 1021.4
20240616152334 81 135 0.0 4.0 0.00 0.00 0.00 55 1021.4
20240616151832 80 323 3.0 10.0 0.00 0.00 0.00 55 1021.5
20240616151331 81 206 10.0 12.0 0.00 0.00 0.00 55 1021.4
20240616150829 81 150 4.0 7.0 0.00 0.00 0.00 53 1021.4
20240616150328 80 194 3.0 7.0 0.00 0.00 0.00 57 1021.4
20240616145817 79 215 5.0 10.0 0.00 0.00 0.00 56 1021.5
20240616145316 78 217 4.0 10.0 0.00 0.00 0.00 57 1021.5
20240616144815 79 134 2.0 6.0 0.00 0.00 0.00 54 1021.3
20240616144242 79 144 2.0 6.0 0.00 0.00 0.00 56 1021.5
20240616143740 79 128 2.0 8.0 0.00 0.00 0.00 54 1021.5
20240616143240 78 208 3.0 9.0 0.00 0.00 0.00 60 1021.8
20240616142738 77 171 4.0 10.0 0.00 0.00 0.00 63 1021.6
20240616142237 75 206 3.0 7.0 0.00 0.00 0.00 67 1021.8
20240616141734 73 62 2.0 3.0 0.00 0.00 0.00 74 1021.6
20240616141213 72 7 1.0 3.0 0.00 0.00 0.00 74 1021.8
20240616140712 71 44 3.0 4.0 0.00 0.00 0.00 75 1021.6
20240616140211 69 73 3.0 5.0 0.00 0.00 0.00 77 1021.7
20240616135709 70 85 2.0 3.0 0.00 0.00 0.00 74 1022.0
20240616135208 68 75 2.0 4.0 0.00 0.00 0.00 78 1021.7
20240616134706 68 86 3.0 5.0 0.00 0.00 0.00 78 1021.9
20240616134205 68 69 3.0 4.0 0.00 0.00 0.00 81 1022.0
20240616133704 67 95 2.0 3.0 0.00 0.00 0.00 79 1022.2
20240616133203 67 69 2.0 4.0 0.00 0.00 0.00 81 1022.3
20240616132702 66 63 2.0 4.0 0.00 0.00 0.00 79 1022.2
20240616132201 65 96 3.0 4.0 0.00 0.00 0.00 82 1022.6
20240616131700 65 97 3.0 4.0 0.00 0.00 0.00 82 1022.6
20240616131200 63 77 1.0 3.0 0.00 0.00 0.00 84 1022.6
20240616130659 63 89 3.0 4.0 0.00 0.00 0.00 83 1022.6
20240616130159 63 108 2.0 3.0 0.00 0.00 0.00 86 1022.5
20240616125657 63 116 2.0 4.0 0.00 0.00 0.00 85 1022.3
20240616125155 62 89 0.0 3.0 0.00 0.00 0.00 87 1022.3
20240616124654 60 86 3.0 4.0 0.00 0.00 0.00 90 1022.5
20240616124153 60 76 3.0 4.0 0.00 0.00 0.00 91 1022.3
20240616123652 59 81 3.0 4.0 0.00 0.00 0.00 95 1022.5
20240616123150 58 101 1.0 3.0 0.00 0.00 0.00 97 1022.2
20240616122648 57 93 3.0 4.0 0.00 0.00 0.00 97 1022.5
20240616122146 56 117 2.0 3.0 0.00 0.00 0.00 97 1022.7
20240616121644 55 102 2.0 3.0 0.00 0.00 0.00 97 1022.7
20240616121142 54 110 1.0 3.0 0.00 0.00 0.00 97 1022.8
20240616120640 54 95 2.0 3.0 0.00 0.00 0.00 97 1022.3
20240616120139 54 132 2.0 3.0 0.00 0.00 0.00 97 1022.7
20240616115635 54 99 2.0 2.0 0.00 0.00 0.00 97 1022.7
20240616115134 54 131 0.0 3.0 0.00 0.00 0.00 97 1022.7
20240616114633 53 106 1.0 2.0 0.00 0.00 0.00 97 1022.7
20240616114133 53 229 0.0 1.0 0.00 0.00 0.00 97 1022.8
20240616113631 53 181 0.0 1.0 0.00 0.00 0.00 97 1022.8
20240616113130 53 36 1.0 1.0 0.00 0.00 0.00 97 1022.8
20240616112630 53 152 1.0 2.0 0.00 0.00 0.00 97 1022.8
20240616112128 52 173 0.0 3.0 0.00 0.00 0.00 97 1022.8
20240616111626 52 240 0.0 2.0 0.00 0.00 0.00 97 1022.8
20240616111125 52 40 0.0 2.0 0.00 0.00 0.00 97 1022.6
20240616110623 52 51 0.0 2.0 0.00 0.00 0.00 97 1022.5
20240616110122 52 107 0.0 2.0 0.00 0.00 0.00 97 1022.8
20240616105621 52 135 0.0 2.0 0.00 0.00 0.00 97 1022.8
20240616105119 52 115 0.0 2.0 0.00 0.00 0.00 97 1022.7
20240616104617 52 73 0.0 2.0 0.00 0.00 0.00 97 1022.6
20240616104116 52 23 0.0 3.0 0.00 0.00 0.00 97 1022.5
20240616103615 53 75 1.0 3.0 0.00 0.00 0.00 97 1022.5
20240616103113 53 68 2.0 4.0 0.00 0.00 0.00 97 1022.6
20240616102611 53 118 1.0 2.0 0.00 0.00 0.00 97 1022.3
20240616102110 53 119 2.0 3.0 0.00 0.00 0.00 97 1022.2
20240616101608 53 147 0.0 2.0 0.00 0.00 0.00 97 1022.5
20240616101106 53 35 4.0 4.0 0.00 0.00 0.00 97 1022.3
20240616100605 53 60 3.0 3.0 0.00 0.00 0.00 97 1022.3
20240616100104 53 33 1.0 2.0 0.00 0.00 0.00 97 1022.5
20240616095603 53 143 0.0 2.0 0.00 0.00 0.00 97 1022.5
20240616095102 53 172 1.0 3.0 0.00 0.00 0.00 97 1022.3
20240616094600 53 211 0.0 2.0 0.00 0.00 0.00 97 1022.2
20240616094059 53 18 2.0 3.0 0.00 0.00 0.00 97 1021.9
20240616093557 53 356 0.0 3.0 0.00 0.00 0.00 97 1022.0
20240616093056 53 148 1.0 2.0 0.00 0.00 0.00 97 1022.1
20240616092555 53 0 0.0 2.0 0.00 0.00 0.00 97 1022.1
20240616092055 53 45 1.0 2.0 0.00 0.00 0.00 97 1022.3
20240616091555 53 157 0.0 0.0 0.00 0.00 0.00 97 1022.0
20240616091054 53 27 1.0 3.0 0.00 0.00 0.00 97 1021.9
20240616090553 53 30 2.0 2.0 0.00 0.00 0.00 97 1021.9
20240616090053 53 20 0.0 3.0 0.00 0.00 0.00 97 1021.7
20240616085552 53 33 0.0 2.0 0.00 0.00 0.00 97 1021.9
20240616085050 53 70 0.0 2.0 0.00 0.00 0.00 97 1021.9
20240616084548 53 19 0.0 2.0 0.00 0.00 0.00 97 1022.0
20240616084047 53 102 0.0 1.0 0.00 0.00 0.00 97 1022.1
20240616083545 53 124 0.0 1.0 0.00 0.00 0.00 97 1022.0
20240616083044 53 209 1.0 2.0 0.00 0.00 0.00 97 1021.8
20240616082538 54 212 3.0 3.0 0.00 0.00 0.00 97 1021.8
20240616082037 54 229 0.0 2.0 0.00 0.00 0.00 97 1021.6
20240616081536 54 246 0.0 2.0 0.00 0.00 0.00 97 1021.7
20240616081034 54 32 0.0 2.0 0.00 0.00 0.00 97 1021.9
20240616080533 54 9 1.0 2.0 0.00 0.00 0.00 97 1021.8
20240616080033 54 38 0.0 2.0 0.00 0.00 0.00 97 1021.6
20240616075531 54 10 2.0 3.0 0.00 0.00 0.00 97 1021.6
20240616075029 54 82 1.0 2.0 0.00 0.00 0.00 97 1021.8
20240616074527 54 151 0.0 2.0 0.00 0.00 0.00 97 1021.9
20240616074026 54 41 0.0 2.0 0.00 0.00 0.00 97 1021.8
20240616073526 54 160 0.0 1.0 0.00 0.00 0.00 97 1021.9
20240616073025 54 308 0.0 0.0 0.00 0.00 0.00 97 1021.9
20240616072524 54 22 0.0 0.0 0.00 0.00 0.00 97 1021.7
20240616072023 54 29 0.0 1.0 0.00 0.00 0.00 97 1021.8
20240616071522 54 235 0.0 1.0 0.00 0.00 0.00 97 1021.6
20240616071021 54 126 0.0 2.0 0.00 0.00 0.00 97 1021.7
20240616070521 54 122 0.0 1.0 0.00 0.00 0.00 97 1021.9
20240616070020 54 124 0.0 0.0 0.00 0.00 0.00 97 1021.8
20240616065519 54 124 0.0 1.0 0.00 0.00 0.00 97 1021.5
20240616065018 54 182 0.0 1.0 0.00 0.00 0.00 97 1021.6
20240616064516 54 135 0.0 0.0 0.00 0.00 0.00 97 1021.5
20240616064015 54 140 0.0 2.0 0.00 0.00 0.00 97 1021.7
20240616063513 54 162 0.0 2.0 0.00 0.00 0.00 97 1021.6
20240616063011 54 159 0.0 1.0 0.00 0.00 0.00 97 1021.7
20240616062510 54 124 0.0 1.0 0.00 0.00 0.00 97 1021.6
20240616062010 54 103 0.0 0.0 0.00 0.00 0.00 97 1021.6
20240616061508 54 105 1.0 1.0 0.00 0.00 0.00 97 1021.9
20240616061006 54 131 0.0 2.0 0.00 0.00 0.00 97 1021.7
20240616060504 55 100 1.0 2.0 0.00 0.00 0.00 97 1021.7
20240616060003 55 230 0.0 1.0 0.00 0.00 0.00 97 1021.8
20240616055501 54 113 0.0 0.0 0.00 0.00 0.00 97 1021.4
20240616055001 54 129 2.0 3.0 0.00 0.00 0.00 97 1021.8
20240616054459 54 126 1.0 2.0 0.00 0.00 0.00 97 1021.9
20240616053959 54 180 0.0 2.0 0.00 0.00 0.00 97 1021.8
20240616053457 54 180 0.0 0.0 0.00 0.00 0.00 97 1021.7
20240616052955 54 157 0.0 2.0 0.00 0.00 0.00 97 1021.9
20240616052454 54 159 1.0 2.0 0.00 0.00 0.00 97 1021.8
20240616051952 55 129 0.0 1.0 0.00 0.00 0.00 97 1021.7
20240616051452 55 57 1.0 2.0 0.00 0.00 0.00 97 1021.9
20240616050950 55 212 0.0 1.0 0.00 0.00 0.00 97 1021.9
20240616050450 55 169 1.0 2.0 0.00 0.00 0.00 97 1021.8
20240616045948 55 176 1.0 2.0 0.00 0.00 0.00 97 1021.9
20240616045446 55 109 1.0 2.0 0.00 0.00 0.00 97 1021.8
20240616044944 55 126 2.0 2.0 0.00 0.00 0.00 97 1021.8
20240616044443 55 138 0.0 2.0 0.00 0.00 0.00 97 1021.5
20240616043942 55 137 1.0 2.0 0.00 0.00 0.00 97 1021.5
20240616043440 55 126 2.0 2.0 0.00 0.00 0.00 97 1021.7
20240616042943 55 152 1.0 2.0 0.00 0.00 0.00 97 1021.7
20240616042438 56 173 0.0 1.0 0.00 0.00 0.00 97 1021.6
20240616041936 55 147 0.0 2.0 0.00 0.00 0.00 97 1021.6
20240616041435 56 133 1.0 2.0 0.00 0.00 0.00 97 1021.9
20240616040935 56 147 0.0 0.0 0.00 0.00 0.00 97 1021.9
20240616040433 56 93 0.0 1.0 0.00 0.00 0.00 97 1021.6
20240616035933 56 113 0.0 1.0 0.00 0.00 0.00 97 1022.0
20240616035432 56 102 0.0 1.0 0.00 0.00 0.00 97 1022.0
20240616034930 56 148 0.0 2.0 0.00 0.00 0.00 97 1021.8
20240616034430 57 167 2.0 2.0 0.00 0.00 0.00 97 1022.1
20240616033930 56 159 1.0 2.0 0.00 0.00 0.00 96 1022.0
20240616033428 57 22 0.0 2.0 0.00 0.00 0.00 96 1022.0
20240616032927 57 110 0.0 1.0 0.00 0.00 0.00 95 1021.8
20240616032426 57 53 0.0 2.0 0.00 0.00 0.00 96 1021.7
20240616031926 57 129 0.0 0.0 0.00 0.00 0.00 96 1021.8
20240616031425 57 121 2.0 3.0 0.00 0.00 0.00 95 1021.7
20240616030923 57 157 0.0 1.0 0.00 0.00 0.00 95 1021.7
20240616030422 57 166 0.0 2.0 0.00 0.00 0.00 95 1021.8
20240616025920 58 127 0.0 2.0 0.00 0.00 0.00 94 1021.8
20240616025418 58 113 1.0 2.0 0.00 0.00 0.00 93 1021.9
20240616024918 58 147 0.0 2.0 0.00 0.00 0.00 93 1021.7
20240616024416 58 218 0.0 1.0 0.00 0.00 0.00 93 1021.6
20240616023916 58 135 2.0 2.0 0.00 0.00 0.00 92 1021.8
20240616023415 59 124 0.0 1.0 0.00 0.00 0.00 91 1021.8
20240616022914 59 148 0.0 1.0 0.00 0.00 0.00 91 1021.5
20240616022412 59 158 1.0 2.0 0.00 0.00 0.00 91 1021.6
20240616021912 59 116 0.0 1.0 0.00 0.00 0.00 90 1021.5
20240616021411 59 142 0.0 2.0 0.00 0.00 0.00 91 1021.7
20240616020911 60 214 0.0 1.0 0.00 0.00 0.00 91 1021.5
20240616020409 60 125 0.0 2.0 0.00 0.00 0.00 90 1021.5
20240616015907 60 184 0.0 2.0 0.00 0.00 0.00 90 1021.4
20240616015405 61 116 0.0 2.0 0.00 0.00 0.00 88 1021.4
20240616014904 61 149 1.0 2.0 0.00 0.00 0.00 88 1021.3
20240616014402 61 170 1.0 2.0 0.00 0.00 0.00 88 1021.4
20240616013902 62 123 1.0 2.0 0.00 0.00 0.00 87 1021.4
20240616013400 62 66 0.0 1.0 0.00 0.00 0.00 86 1021.3
20240616012858 62 147 0.0 1.0 0.00 0.00 0.00 86 1021.0
20240616012356 63 120 1.0 2.0 0.00 0.00 0.00 85 1021.0
20240616011854 63 129 0.0 1.0 0.00 0.00 0.00 84 1021.1
20240616011352 63 101 0.0 1.0 0.00 0.00 0.00 82 1020.9
20240616010852 64 185 0.0 1.0 0.00 0.00 0.00 83 1020.7
20240616010350 64 121 1.0 2.0 0.00 0.00 0.00 80 1020.7
20240616005848 65 121 0.0 1.0 0.00 0.00 0.00 79 1020.8
20240616005347 66 95 1.0 2.0 0.00 0.00 0.00 78 1020.5
20240616004846 66 224 0.0 2.0 0.00 0.00 0.00 75 1020.8
20240616004345 67 243 0.0 1.0 0.00 0.00 0.00 78 1020.5
20240616003843 68 166 0.0 1.0 0.00 0.00 0.00 77 1020.5
20240616003340 68 124 0.0 0.0 0.00 0.00 0.00 72 1020.5
20240616002838 69 127 1.0 1.0 0.00 0.00 0.00 68 1020.4
20240616002337 70 28 0.0 1.0 0.00 0.00 0.00 66 1020.8
20240616001835 71 1 1.0 2.0 0.00 0.00 0.00 65 1020.6
20240616001334 72 297 0.0 2.0 0.00 0.00 0.00 62 1020.4
20240616000832 72 37 0.0 2.0 0.00 0.00 0.00 57 1020.6
20240616000333 72 62 2.0 5.0 0.00 0.00 0.00 56 1020.4
20240615235830 73 76 2.0 2.0 0.00 0.00 0.00 58 1020.1
20240615235328 73 55 3.0 3.0 0.00 0.00 0.00 55 1020.4
20240615234826 73 33 2.0 3.0 0.00 0.00 0.00 53 1020.4
20240615234325 73 46 2.0 6.0 0.00 0.00 0.00 54 1020.4
20240615233823 74 24 1.0 5.0 0.00 0.00 0.00 53 1020.5
20240615233321 75 51 3.0 5.0 0.00 0.00 0.00 52 1020.4
20240615232819 75 20 2.0 3.0 0.00 0.00 0.00 53 1020.3
20240615232318 75 43 2.0 6.0 0.00 0.00 0.00 51 1020.1
20240615231818 75 68 3.0 4.0 0.00 0.00 0.00 50 1020.3
20240615231318 76 48 5.0 8.0 0.00 0.00 0.00 49 1019.9
20240615230817 76 52 3.0 7.0 0.00 0.00 0.00 49 1020.1
20240615230315 75 2 3.0 7.0 0.00 0.00 0.00 52 1020.1
20240615225814 76 23 6.0 8.0 0.00 0.00 0.00 47 1020.0
20240615225313 77 31 6.0 9.0 0.00 0.00 0.00 47 1020.4
20240615224812 77 348 2.0 6.0 0.00 0.00 0.00 49 1020.1
20240615224312 76 14 3.0 10.0 0.00 0.00 0.00 48 1019.9
20240615223810 77 4 5.0 8.0 0.00 0.00 0.00 48 1020.1
20240615223310 78 322 1.0 5.0 0.00 0.00 0.00 48 1019.8
20240615222808 79 347 3.0 5.0 0.00 0.00 0.00 47 1019.8
20240615222306 78 309 0.0 5.0 0.00 0.00 0.00 47 1019.5
20240615221805 79 328 2.0 4.0 0.00 0.00 0.00 45 1019.6
20240615221303 79 0 1.0 3.0 0.00 0.00 0.00 46 1019.7
20240615220802 80 231 2.0 5.0 0.00 0.00 0.00 46 1019.6
20240615220301 79 34 1.0 5.0 0.00 0.00 0.00 47 1019.6
20240615215757 79 304 2.0 5.0 0.00 0.00 0.00 47 1019.6
20240615215256 79 350 4.0 6.0 0.00 0.00 0.00 49 1019.5
20240615214755 79 333 1.0 7.0 0.00 0.00 0.00 49 1019.7
20240615214254 80 277 3.0 4.0 0.00 0.00 0.00 47 1019.6
20240615213753 78 12 2.0 5.0 0.00 0.00 0.00 48 1019.7
20240615213251 78 1 3.0 8.0 0.00 0.00 0.00 47 1019.6
20240615212750 79 249 1.0 5.0 0.00 0.00 0.00 46 1019.8
20240615212223 78 1 1.0 6.0 0.00 0.00 0.00 53 1019.6
20240615211701 78 332 3.0 6.0 0.00 0.00 0.00 48 1019.6
20240615211200 78 320 1.0 7.0 0.00 0.00 0.00 49 1019.4
20240615210659 78 3 4.0 7.0 0.00 0.00 0.00 47 1019.4
20240615210158 79 318 2.0 5.0 0.00 0.00 0.00 44 1019.4
20240615205647 79 196 2.0 7.0 0.00 0.00 0.00 47 1019.4
20240615205145 78 78 1.0 5.0 0.00 0.00 0.00 47 1019.3
20240615204641 78 49 3.0 8.0 0.00 0.00 0.00 47 1019.6
20240615204139 78 238 2.0 5.0 0.00 0.00 0.00 51 1019.8
20240615203639 78 260 1.0 7.0 0.00 0.00 0.00 45 1019.6
20240615203137 79 39 0.0 8.0 0.00 0.00 0.00 50 1019.3
20240615202633 78 200 1.0 6.0 0.00 0.00 0.00 51 1019.5
20240615202131 79 230 3.0 5.0 0.00 0.00 0.00 48 1019.4
20240615201629 79 78 3.0 6.0 0.00 0.00 0.00 45 1019.6
20240615201128 80 123 1.0 6.0 0.00 0.00 0.00 47 1019.6
20240615200627 78 29 0.0 5.0 0.00 0.00 0.00 50 1019.5
20240615200127 78 260 4.0 6.0 0.00 0.00 0.00 46 1019.5
20240615195626 78 222 4.0 7.0 0.00 0.00 0.00 46 1019.8
20240615195123 77 52 1.0 8.0 0.00 0.00 0.00 48 1019.9
20240615194620 77 244 0.0 8.0 0.00 0.00 0.00 49 1020.0
20240615194118 77 357 2.0 8.0 0.00 0.00 0.00 49 1019.7
20240615193614 78 84 0.0 7.0 0.00 0.00 0.00 53 1019.7
20240615193113 78 321 0.0 9.0 0.00 0.00 0.00 46 1019.7
20240615192611 77 349 2.0 10.0 0.00 0.00 0.00 49 1019.7
20240615192110 77 309 2.0 7.0 0.00 0.00 0.00 52 1019.6
20240615191608 78 331 2.0 5.0 0.00 0.00 0.00 48 1019.8
20240615191106 77 11 2.0 5.0 0.00 0.00 0.00 46 1019.8
20240615190604 76 104 4.0 8.0 0.00 0.00 0.00 49 1019.7
20240615190103 76 152 2.0 6.0 0.00 0.00 0.00 48 1019.8
20240615185307 76 12 3.0 7.0 0.00 0.00 0.00 48 1019.6
20240615184803 76 330 3.0 8.0 0.00 0.00 0.00 52 1019.8
20240615184302 77 6 5.0 10.0 0.00 0.00 0.00 49 1019.7
20240615183801 77 352 5.0 7.0 0.00 0.00 0.00 54 1019.7
20240615183301 77 0 3.0 7.0 0.00 0.00 0.00 45 1019.7
20240615182800 77 344 3.0 5.0 0.00 0.00 0.00 47 1019.8
20240615182300 77 359 3.0 8.0 0.00 0.00 0.00 49 1020.0
20240615181759 77 353 2.0 7.0 0.00 0.00 0.00 49 1019.9
20240615181258 76 208 2.0 9.0 0.00 0.00 0.00 56 1020.0
20240615180756 76 346 0.0 5.0 0.00 0.00 0.00 47 1019.9
20240615180255 76 0 6.0 9.0 0.00 0.00 0.00 45 1020.0
20240615175755 76 242 3.0 5.0 0.00 0.00 0.00 46 1020.1
20240615175253 75 18 2.0 7.0 0.00 0.00 0.00 46 1020.1
20240615174751 75 340 8.0 10.0 0.00 0.00 0.00 45 1020.3
20240615174248 75 70 4.0 5.0 0.00 0.00 0.00 43 1020.4
20240615173748 76 164 0.0 9.0 0.00 0.00 0.00 45 1020.4
20240615173246 74 329 3.0 7.0 0.00 0.00 0.00 51 1020.1
20240615172745 75 315 4.0 8.0 0.00 0.00 0.00 46 1020.4
20240615172243 75 310 3.0 7.0 0.00 0.00 0.00 47 1020.6
20240615171740 74 92 4.0 10.0 0.00 0.00 0.00 46 1020.6
20240615171238 74 185 2.0 7.0 0.00 0.00 0.00 49 1020.5
20240615170736 74 291 0.0 5.0 0.00 0.00 0.00 46 1020.6
20240615170233 73 220 3.0 4.0 0.00 0.00 0.00 47 1020.6
20240615165732 75 348 3.0 5.0 0.00 0.00 0.00 47 1020.4
20240615165231 74 226 3.0 8.0 0.00 0.00 0.00 47 1020.4
20240615164725 73 11 2.0 4.0 0.00 0.00 0.00 53 1020.6
20240615164225 73 76 5.0 10.0 0.00 0.00 0.00 45 1020.5
20240615163702 74 353 4.0 6.0 0.00 0.00 0.00 43 1020.5
20240615163201 74 326 1.0 7.0 0.00 0.00 0.00 52 1020.3
20240615162659 74 1 4.0 6.0 0.00 0.00 0.00 47 1020.5